Time;durP1;ratioP1;P1;durP2;ratioP2;P2;SDS_P1;SDS_P2;PMS_P1;PMS_P2;Temp;Humidity;BMP_temperature;BMP_pressure;BME280_temperature;BME280_humidity;BME280_pressure;Samples;Min_cycle;Max_cycle;Signal;HPM_P1;HPM_P2
2022/10/11 00:02:25;;;;;;;2.83;1.52;;;;;;;17.04;51.47;100092.28;4492477;31;34093;-63
2022/10/11 00:04:53;;;;;;;3.55;2.17;;;;;;;17.03;51.88;100087.87;4488747;31;34783;-63
2022/10/11 00:07:21;;;;;;;6.22;2.47;;;;;;;17.07;51.82;100091.13;4489436;31;33319;-64
2022/10/11 00:09:48;;;;;;;2.70;1.80;;;;;;;17.01;51.79;100095.28;4485315;31;33585;-64
2022/10/11 00:12:16;;;;;;;4.12;2.22;;;;;;;17.00;52.10;100083.59;4495973;31;34178;-63
2022/10/11 00:14:44;;;;;;;4.43;2.75;;;;;;;16.94;52.37;100094.16;4493160;31;33477;-64
2022/10/11 00:17:11;;;;;;;4.68;3.17;;;;;;;17.00;51.95;100094.44;4485306;31;34674;-63
2022/10/11 00:19:39;;;;;;;3.97;2.97;;;;;;;16.96;52.34;100094.87;4485379;31;33962;-63
2022/10/11 00:22:16;;;;;;;5.00;3.25;;;;;;;17.44;51.33;100088.41;4510468;31;174166;-65
2022/10/11 00:24:57;;;;;;;6.85;3.45;;;;;;;17.09;51.83;100092.69;4514313;31;84055;-62
2022/10/11 00:27:35;;;;;;;7.28;2.97;;;;;;;16.75;52.76;100098.63;4523102;31;119346;-65
2022/10/11 00:30:14;;;;;;;3.78;2.37;;;;;;;17.40;51.50;100073.50;4506864;31;86732;-63
2022/10/11 00:32:52;;;;;;;5.60;2.97;;;;;;;17.05;51.85;100077.78;4491684;31;115846;-62
2022/10/11 00:35:31;;;;;;;11.88;4.57;;;;;;;17.23;51.48;100084.09;4495885;31;100813;-62
2022/10/11 00:38:10;;;;;;;3.03;2.08;;;;;;;17.30;51.39;100080.78;4504100;31;39929;-62
2022/10/11 00:40:50;;;;;;;2.65;1.83;;;;;;;16.94;51.82;100077.94;4522691;31;153958;-63
2022/10/11 00:43:30;;;;;;;4.12;2.67;;;;;;;17.27;51.59;100078.38;4505445;31;110298;-63
2022/10/11 00:46:12;;;;;;;7.32;3.22;;;;;;;16.92;52.03;100083.50;4516705;31;85475;-64
2022/10/11 00:49:00;;;;;;;9.07;3.17;;;;;;;17.21;51.50;100063.63;4504236;31;118668;-63
2022/10/11 00:51:47;;;;;;;5.75;3.17;;;;;;;16.85;52.06;100074.25;4520656;31;101766;-63
2022/10/11 00:54:28;;;;;;;5.20;2.83;;;;;;;17.09;51.64;100070.22;4493697;31;833019;-66
2022/10/11 00:57:09;;;;;;;4.28;2.65;;;;;;;16.76;52.12;100075.16;4516757;31;102966;-63
2022/10/11 00:59:50;;;;;;;9.07;2.45;;;;;;;17.11;51.44;100069.06;4517338;31;97658;-63
2022/10/11 01:02:29;;;;;;;4.95;3.08;;;;;;;16.77;51.96;100072.31;4490245;31;558947;-63
2022/10/11 01:05:13;;;;;;;4.43;2.47;;;;;;;16.57;52.61;100067.91;4520970;31;117270;-63
2022/10/11 01:08:09;;;;;;;4.20;2.62;;;;;;;16.94;51.56;100073.38;4514182;31;96719;-65
2022/10/11 01:10:48;;;;;;;5.05;2.87;;;;;;;16.60;52.01;100069.50;4507210;31;90413;-63
2022/10/11 01:13:51;;;;;;;4.68;3.00;;;;;;;16.36;52.84;100067.22;4514413;31;101880;-65
2022/10/11 01:16:47;;;;;;;1.95;1.40;;;;;;;16.31;53.09;100070.38;4523625;31;94044;-63
2022/10/11 01:20:03;;;;;;;6.18;3.40;;;;;;;16.34;52.97;100070.09;4518011;31;119147;-63
2022/10/11 01:23:06;;;;;;;3.85;2.20;;;;;;;16.27;52.74;100067.09;4502522;31;140766;-66
2022/10/11 01:25:56;;;;;;;8.50;3.70;;;;;;;16.17;52.98;100063.53;4495740;31;127528;-63
2022/10/11 01:28:59;;;;;;;6.97;3.10;;;;;;;15.99;53.37;100063.44;4517157;31;100936;-66
2022/10/11 01:31:46;;;;;;;6.95;3.15;;;;;;;16.00;53.28;100062.41;4518691;31;85814;-66
2022/10/11 01:34:32;;;;;;;5.43;2.73;;;;;;;15.95;53.39;100061.13;4468861;31;808741;-66
2022/10/11 01:37:17;;;;;;;7.55;4.35;;;;;;;15.91;53.49;100052.47;4511771;31;103010;-66
2022/10/11 01:40:11;;;;;;;11.15;7.55;;;;;;;15.91;53.69;100052.47;4514070;31;86804;-66
2022/10/11 01:42:51;;;;;;;5.85;3.40;;;;;;;16.57;52.03;100053.56;4521797;31;93069;-66
2022/10/11 01:45:30;;;;;;;6.47;2.62;;;;;;;16.21;52.51;100050.59;4524749;31;103120;-66
2022/10/11 01:48:11;;;;;;;4.70;2.87;;;;;;;16.05;53.07;100048.47;4517808;31;95167;-66
2022/10/11 01:50:52;;;;;;;4.80;2.72;;;;;;;16.43;52.17;100053.00;4523627;31;148266;-66
2022/10/11 01:53:56;;;;;;;5.00;2.92;;;;;;;16.03;52.77;100050.50;4511544;31;87476;-65
2022/10/11 01:56:58;;;;;;;4.53;3.15;;;;;;;15.95;52.85;100056.56;4489511;32;113705;-65
2022/10/11 02:00:00;;;;;;;2.53;1.92;;;;;;;15.74;53.34;100059.41;4522951;31;100681;-65
2022/10/11 02:03:08;;;;;;;3.60;2.45;;;;;;;16.29;51.90;100048.06;4512771;31;41982;-66
2022/10/11 02:06:17;;;;;;;8.57;3.03;;;;;;;16.33;51.77;100040.50;4520617;31;122257;-65
2022/10/11 02:09:05;;;;;;;5.22;3.00;;;;;;;15.96;52.30;100049.38;4509281;31;97077;-66
2022/10/11 02:11:46;;;;;;;4.30;2.83;;;;;;;15.77;53.16;100051.03;4498864;31;93525;-65
2022/10/11 02:14:26;;;;;;;4.25;2.25;;;;;;;15.78;53.02;100046.50;4486655;31;131494;-66
2022/10/11 02:17:17;;;;;;;5.07;2.83;;;;;;;16.40;52.11;100042.47;4515474;31;100781;-65
2022/10/11 02:19:58;;;;;;;3.50;2.42;;;;;;;16.05;52.49;100043.09;4509115;31;87751;-65
2022/10/11 02:22:40;;;;;;;5.45;2.42;;;;;;;15.72;53.30;100050.59;4513205;31;105652;-65
2022/10/11 02:25:23;;;;;;;10.13;3.05;;;;;;;15.78;53.03;100051.91;4485353;31;129802;-66
2022/10/11 02:28:10;;;;;;;2.70;2.37;;;;;;;15.84;52.76;100062.97;4511373;31;85421;-66
2022/10/11 02:30:49;;;;;;;4.57;2.57;;;;;;;16.30;51.48;100045.19;4479467;31;841260;-65
2022/10/11 02:33:35;;;;;;;4.15;2.22;;;;;;;15.95;51.97;100043.09;4511222;31;123060;-65
2022/10/11 02:36:28;;;;;;;5.57;3.22;;;;;;;15.79;52.40;100046.38;4504985;31;86262;-65
2022/10/11 02:39:12;;;;;;;5.15;2.65;;;;;;;15.58;52.74;100051.84;4491054;31;103535;-65
2022/10/11 02:41:52;;;;;;;3.83;2.60;;;;;;;15.44;53.10;100048.66;4498116;31;94020;-65
2022/10/11 02:44:39;;;;;;;3.85;2.78;;;;;;;15.43;53.10;100049.66;4497668;31;128996;-66
2022/10/11 02:47:18;;;;;;;6.03;2.47;;;;;;;15.94;51.87;100049.47;4514806;31;84316;-65
2022/10/11 02:49:58;;;;;;;2.20;1.92;;;;;;;15.77;52.21;100055.59;4493841;31;128301;-66
2022/10/11 02:52:35;;;;;;;2.78;2.25;;;;;;;15.44;52.70;100054.94;4499806;31;94451;-65
2022/10/11 02:55:14;;;;;;;3.40;2.25;;;;;;;15.15;53.79;100062.91;4495644;31;135180;-65
2022/10/11 02:57:51;;;;;;;4.37;2.37;;;;;;;15.11;54.07;100058.78;4506974;31;43249;-65
2022/10/11 03:00:30;;;;;;;15.68;3.67;;;;;;;15.19;53.94;100058.97;4516564;31;87286;-65
2022/10/11 03:03:09;;;;;;;8.05;2.35;;;;;;;15.71;53.07;100050.75;4496229;31;67267;-65
2022/10/11 03:05:48;;;;;;;2.78;1.98;;;;;;;15.76;52.90;100056.56;4514767;31;104420;-66
2022/10/11 03:08:27;;;;;;;5.37;2.53;;;;;;;15.41;53.32;100063.31;4478107;31;90999;-66
2022/10/11 03:11:05;;;;;;;3.70;2.58;;;;;;;15.29;53.72;100059.00;4478643;31;113414;-65
2022/10/11 03:13:44;;;;;;;3.97;3.10;;;;;;;15.82;52.75;100047.91;4504759;31;120138;-65
2022/10/11 03:16:24;;;;;;;5.35;2.75;;;;;;;15.44;53.26;100052.25;4508379;31;100711;-66
2022/10/11 03:19:02;;;;;;;5.70;3.17;;;;;;;15.16;54.48;100059.25;4513428;31;88727;-66
2022/10/11 03:21:41;;;;;;;3.72;2.17;;;;;;;15.65;53.36;100053.97;4512995;31;88103;-65
2022/10/11 03:24:21;;;;;;;6.43;3.70;;;;;;;15.30;53.82;100064.25;4521117;31;126243;-65
2022/10/11 03:26:59;;;;;;;5.53;2.90;;;;;;;15.77;52.83;100061.00;4507645;31;149656;-66
2022/10/11 03:29:38;;;;;;;3.80;2.47;;;;;;;15.40;53.34;100060.72;4519274;31;120863;-66
2022/10/11 03:32:17;;;;;;;2.78;1.98;;;;;;;15.71;53.09;100061.56;4515411;31;88934;-67
2022/10/11 03:34:56;;;;;;;3.42;2.53;;;;;;;15.32;53.65;100067.69;4519565;31;85310;-67
2022/10/11 03:37:34;;;;;;;4.60;2.50;;;;;;;15.77;52.95;100071.78;4506196;31;42628;-67
2022/10/11 03:40:13;;;;;;;4.47;2.53;;;;;;;15.83;52.70;100076.62;4511484;31;102553;-66
2022/10/11 03:42:55;;;;;;;6.87;3.40;;;;;;;15.48;53.13;100075.25;4514814;31;102732;-66
2022/10/11 03:45:32;;;;;;;6.93;3.40;;;;;;;15.37;53.46;100075.34;4510440;31;86698;-66
2022/10/11 03:48:11;;;;;;;2.62;1.98;;;;;;;15.37;53.66;100078.88;4519049;31;85641;-66
2022/10/11 03:50:50;;;;;;;2.12;1.62;;;;;;;15.42;53.44;100083.88;4512034;31;128227;-66
2022/10/11 03:53:29;;;;;;;13.55;3.62;;;;;;;15.94;52.70;100081.03;4495331;31;98139;-66
2022/10/11 03:56:08;;;;;;;2.90;2.00;;;;;;;15.93;52.84;100072.09;4459670;32;86637;-65
2022/10/11 03:58:47;;;;;;;2.47;1.87;;;;;;;15.57;53.35;100085.22;4512027;31;87830;-65
2022/10/11 04:01:27;;;;;;;2.83;2.28;;;;;;;15.45;53.91;100083.63;4512625;31;133413;-65
2022/10/11 04:04:07;;;;;;;4.80;3.08;;;;;;;15.43;53.86;100087.44;4516031;31;122977;-65
2022/10/11 04:06:46;;;;;;;7.72;3.17;;;;;;;15.16;54.96;100074.56;4506778;31;39325;-64
2022/10/11 04:09:24;;;;;;;4.20;2.80;;;;;;;15.80;53.63;100080.44;4511055;31;101622;-64
2022/10/11 04:12:04;;;;;;;5.15;2.78;;;;;;;15.49;54.15;100089.59;4515739;31;121871;-65
2022/10/11 04:14:42;;;;;;;3.72;2.10;;;;;;;15.37;54.79;100086.12;4504767;31;111557;-66
2022/10/11 04:17:21;;;;;;;4.60;3.15;;;;;;;15.41;54.71;100079.50;4506356;31;100192;-66
2022/10/11 04:20:00;;;;;;;5.75;3.55;;;;;;;15.35;54.75;100091.69;4514039;31;102877;-64
2022/10/11 04:22:39;;;;;;;5.82;2.78;;;;;;;15.38;54.52;100082.47;4456204;32;96677;-65
2022/10/11 04:25:17;;;;;;;5.45;3.20;;;;;;;15.28;54.85;100082.44;4518524;31;91202;-65
2022/10/11 04:27:56;;;;;;;12.23;3.95;;;;;;;15.90;53.43;100079.62;4504857;31;226320;-66
2022/10/11 04:30:35;;;;;;;5.40;3.20;;;;;;;15.55;53.88;100083.63;4514537;31;102890;-65
2022/10/11 04:33:13;;;;;;;4.20;2.90;;;;;;;15.43;54.43;100084.72;4509504;31;86246;-66
2022/10/11 04:35:54;;;;;;;9.40;3.10;;;;;;;15.36;54.53;100079.03;4515373;31;89520;-64
2022/10/11 04:38:31;;;;;;;4.03;3.10;;;;;;;15.99;53.43;100073.38;4502775;31;99701;-64
2022/10/11 04:41:13;;;;;;;4.97;2.75;;;;;;;16.04;53.53;100073.78;4491237;31;109354;-64
2022/10/11 04:43:51;;;;;;;4.32;2.83;;;;;;;16.08;53.54;100077.91;4494370;31;105100;-65
2022/10/11 04:46:30;;;;;;;4.00;2.55;;;;;;;16.15;53.28;100075.50;4516496;31;121730;-63
2022/10/11 04:49:09;;;;;;;3.58;2.40;;;;;;;15.78;53.83;100073.47;4522355;31;102029;-66
2022/10/11 04:51:46;;;;;;;5.07;3.30;;;;;;;15.57;54.68;100081.66;4479391;31;135801;-66
2022/10/11 04:54:26;;;;;;;4.80;2.67;;;;;;;16.24;53.46;100080.91;4494076;31;105240;-66
2022/10/11 04:57:05;;;;;;;5.75;3.80;;;;;;;15.88;53.93;100082.44;4504606;31;45072;-65
2022/10/11 04:59:45;;;;;;;5.60;3.00;;;;;;;16.34;53.56;100083.59;4514018;31;116063;-66
2022/10/11 05:02:27;;;;;;;5.37;3.30;;;;;;;15.94;54.06;100083.72;4483493;31;1115568;-66
2022/10/11 05:05:06;;;;;;;5.05;2.83;;;;;;;15.86;54.42;100084.44;4493798;31;58188;-67
2022/10/11 05:07:45;;;;;;;4.20;3.08;;;;;;;15.86;54.55;100087.16;4510477;31;128428;-67
2022/10/11 05:10:23;;;;;;;6.85;3.65;;;;;;;15.86;54.39;100086.25;4508085;31;39086;-66
2022/10/11 05:13:03;;;;;;;6.12;3.97;;;;;;;15.86;54.59;100086.25;4510598;31;117556;-66
2022/10/11 05:15:43;;;;;;;5.57;3.33;;;;;;;15.88;54.58;100084.28;4497613;31;101743;-67
2022/10/11 05:18:22;;;;;;;5.28;3.50;;;;;;;16.42;53.11;100089.13;4480524;31;107764;-66
2022/10/11 05:21:22;;;;;;;4.05;3.20;;;;;;;16.29;53.62;100099.38;4511885;31;86632;-66
2022/10/11 05:24:00;;;;;;;6.82;4.50;;;;;;;15.90;54.13;100091.25;4488535;31;121522;-66
2022/10/11 05:26:39;;;;;;;5.40;3.15;;;;;;;15.79;54.72;100103.03;4514865;31;70507;-66
2022/10/11 05:29:18;;;;;;;3.72;2.75;;;;;;;16.26;53.72;100092.41;4493881;31;146830;-66
2022/10/11 05:31:56;;;;;;;4.40;2.95;;;;;;;16.35;53.61;100097.94;4487790;31;117695;-65
2022/10/11 05:34:35;;;;;;;3.75;2.65;;;;;;;15.96;54.15;100101.50;4488633;31;87766;-66
2022/10/11 05:37:14;;;;;;;4.53;3.42;;;;;;;15.88;54.63;100111.28;4471598;32;115341;-65
2022/10/11 05:39:53;;;;;;;6.25;3.50;;;;;;;15.91;54.67;100114.56;4509496;31;89143;-64
2022/10/11 05:42:33;;;;;;;5.07;3.45;;;;;;;15.94;54.77;100116.97;4492398;31;97393;-64
2022/10/11 05:45:12;;;;;;;7.35;3.62;;;;;;;16.57;53.98;100119.25;4491308;31;106806;-62
2022/10/11 05:47:52;;;;;;;4.72;3.37;;;;;;;16.23;54.36;100122.41;4515126;31;91898;-64
2022/10/11 05:50:32;;;;;;;6.15;4.22;;;;;;;16.70;53.90;100130.62;4499966;31;89071;-64
2022/10/11 05:53:11;;;;;;;5.10;2.60;;;;;;;16.33;54.53;100135.03;4504325;31;119677;-62
2022/10/11 05:55:51;;;;;;;6.12;3.28;;;;;;;16.82;53.71;100131.34;4477172;31;88117;-65
2022/10/11 05:58:31;;;;;;;3.95;2.87;;;;;;;16.49;54.18;100127.22;4504606;31;120823;-64
2022/10/11 06:01:22;;;;;;;6.93;3.83;;;;;;;16.37;54.74;100134.63;4513809;31;101722;-64
2022/10/11 06:04:03;;;;;;;4.43;3.12;;;;;;;16.41;54.74;100140.59;4517828;31;90029;-64
2022/10/11 06:06:41;;;;;;;5.10;3.08;;;;;;;16.41;55.33;100138.75;4491975;31;117895;-64
2022/10/11 06:09:19;;;;;;;5.70;3.87;;;;;;;16.50;54.87;100137.91;4499954;31;88023;-65
2022/10/11 06:11:58;;;;;;;6.15;2.90;;;;;;;16.56;55.04;100136.44;4502518;31;111209;-64
2022/10/11 06:14:38;;;;;;;5.18;3.30;;;;;;;16.57;55.09;100137.34;4508184;31;140027;-67
2022/10/11 06:17:15;;;;;;;7.45;4.07;;;;;;;16.64;54.68;100135.75;4516000;31;127079;-70
2022/10/11 06:19:53;;;;;;;5.07;3.45;;;;;;;16.68;54.35;100142.56;4517230;31;103660;-65
2022/10/11 06:22:32;;;;;;;3.12;2.60;;;;;;;16.73;54.62;100141.16;4506420;31;107184;-65
2022/10/11 06:25:11;;;;;;;6.82;3.08;;;;;;;17.25;54.25;100148.03;4514565;31;68919;-65
2022/10/11 06:27:49;;;;;;;8.27;4.35;;;;;;;17.14;54.83;100149.03;4519933;31;173504;-65
2022/10/11 06:30:28;;;;;;;5.35;2.75;;;;;;;17.38;54.03;100152.09;4512609;31;170773;-66
2022/10/11 06:33:07;;;;;;;13.02;5.20;;;;;;;17.03;54.43;100158.19;4519423;31;105068;-66
2022/10/11 06:35:47;;;;;;;7.97;4.32;;;;;;;17.46;54.29;100149.50;4510233;31;41872;-66
2022/10/11 06:38:27;;;;;;;20.50;4.62;;;;;;;17.13;54.80;100160.88;4521344;31;103842;-66
2022/10/11 06:41:18;;;;;;;7.37;4.65;;;;;;;17.57;54.16;100156.56;4522080;31;123429;-66
2022/10/11 06:43:57;;;;;;;3.75;3.25;;;;;;;17.64;53.84;100156.81;4509945;31;103243;-66
2022/10/11 06:46:37;;;;;;;7.35;4.32;;;;;;;17.28;54.30;100158.56;4495032;31;85246;-66
2022/10/11 06:49:17;;;;;;;8.50;3.60;;;;;;;17.13;54.66;100167.13;4492927;31;118704;-66
2022/10/11 06:52:00;;;;;;;4.95;3.58;;;;;;;17.14;54.01;100163.44;4514703;31;104641;-65
2022/10/11 06:54:39;;;;;;;8.07;3.85;;;;;;;17.74;52.29;100160.31;4511194;31;89196;-66
2022/10/11 06:57:23;;;;;;;8.63;5.00;;;;;;;17.38;52.64;100162.91;4504871;31;127325;-66
2022/10/11 07:00:04;;;;;;;6.62;4.47;;;;;;;17.30;53.01;100156.53;4507218;31;135753;-65
2022/10/11 07:02:48;;;;;;;7.43;4.78;;;;;;;17.38;52.82;100168.31;4499352;31;118920;-66
2022/10/11 07:05:28;;;;;;;9.23;5.22;;;;;;;18.06;51.52;100173.41;4501421;31;70361;-66
2022/10/11 07:08:05;;;;;;;12.15;4.78;;;;;;;18.15;51.32;100172.50;4489446;31;96023;-67
2022/10/11 07:10:45;;;;;;;7.72;4.80;;;;;;;17.79;51.52;100165.34;4502384;31;100944;-66
2022/10/11 07:13:24;;;;;;;7.32;3.53;;;;;;;18.23;50.40;100170.88;4514815;31;133993;-66
2022/10/11 07:16:06;;;;;;;8.85;4.75;;;;;;;17.89;50.67;100175.09;4509243;31;118961;-63
2022/10/11 07:18:47;;;;;;;9.48;5.28;;;;;;;17.79;51.39;100168.91;4168560;31;10757147;-62
2022/10/11 07:21:28;;;;;;;9.18;5.60;;;;;;;18.36;49.89;100168.63;4500928;31;116821;-62
2022/10/11 07:24:06;;;;;;;11.88;6.32;;;;;;;18.02;50.26;100169.31;4505711;31;123892;-64
2022/10/11 07:26:46;;;;;;;23.10;13.40;;;;;;;18.43;49.54;100169.75;4517493;31;89085;-64
2022/10/11 07:29:26;;;;;;;15.18;6.70;;;;;;;18.09;50.09;100170.41;4514444;31;121580;-62
2022/10/11 07:32:05;;;;;;;6.85;3.80;;;;;;;18.64;49.61;100169.41;4511017;31;213184;-65
2022/10/11 07:34:45;;;;;;;6.82;4.40;;;;;;;18.29;49.86;100171.12;4491589;31;70519;-64
2022/10/11 07:37:24;;;;;;;7.18;4.97;;;;;;;18.00;50.77;100175.87;4506424;31;114489;-62
2022/10/11 07:40:01;;;;;;;7.55;4.78;;;;;;;18.16;50.28;100173.34;4517980;31;100334;-61
2022/10/11 07:42:40;;;;;;;12.55;7.37;;;;;;;18.20;50.72;100173.91;4513951;31;144422;-64
2022/10/11 07:45:19;;;;;;;11.77;6.25;;;;;;;18.37;50.60;100176.63;4515403;31;89579;-64
2022/10/11 07:47:58;;;;;;;13.07;6.75;;;;;;;18.30;51.21;100180.97;4511285;31;108822;-64
2022/10/11 07:50:36;;;;;;;8.13;5.45;;;;;;;18.50;50.67;100175.41;4506973;31;95195;-64
2022/10/11 07:53:15;;;;;;;11.18;7.07;;;;;;;19.01;49.86;100176.53;4508017;31;118197;-65
2022/10/11 07:55:53;;;;;;;13.98;6.25;;;;;;;18.67;50.31;100179.09;4507876;31;122558;-64
2022/10/11 07:58:32;;;;;;;14.52;6.55;;;;;;;19.12;50.86;100178.97;4475366;31;85963;-64
2022/10/11 08:01:13;;;;;;;9.07;5.57;;;;;;;18.69;51.47;100177.94;4511915;31;98970;-64
2022/10/11 08:03:52;;;;;;;14.77;6.32;;;;;;;19.33;50.83;100183.19;4503655;31;106508;-62
2022/10/11 08:06:31;;;;;;;11.57;4.85;;;;;;;19.01;51.25;100182.81;4515843;31;130724;-65
2022/10/11 08:09:10;;;;;;;15.45;6.68;;;;;;;19.13;52.05;100182.53;4484458;31;104911;-62
2022/10/11 08:11:48;;;;;;;18.30;8.70;;;;;;;19.25;51.50;100184.81;4510586;31;95042;-65
2022/10/11 08:14:28;;;;;;;11.88;7.32;;;;;;;18.86;52.16;100181.66;4510543;31;116079;-62
2022/10/11 08:17:08;;;;;;;12.18;5.85;;;;;;;19.54;50.45;100187.19;4491013;31;116757;-62
2022/10/11 08:19:47;;;;;;;13.95;8.70;;;;;;;19.26;50.74;100188.38;4499884;31;102326;-62
2022/10/11 08:22:27;;;;;;;9.57;5.20;;;;;;;19.34;50.23;100188.44;4499418;31;115589;-64
2022/10/11 08:25:07;;;;;;;16.67;7.45;;;;;;;19.34;50.55;100185.72;4506602;31;149380;-64
2022/10/11 08:27:46;;;;;;;7.32;4.75;;;;;;;20.09;48.79;100185.06;4513298;31;105212;-62
2022/10/11 08:30:26;;;;;;;10.05;5.85;;;;;;;19.74;49.19;100176.97;4509200;31;119092;-62
2022/10/11 08:33:06;;;;;;;11.88;6.05;;;;;;;20.14;48.73;100185.44;4499830;31;231694;-62
2022/10/11 08:35:46;;;;;;;10.18;6.22;;;;;;;19.40;49.96;100178.81;4507306;31;95464;-65
2022/10/11 08:38:24;;;;;;;9.15;6.12;;;;;;;19.52;50.53;100181.09;4502530;31;133096;-64
2022/10/11 08:41:22;;;;;;;10.25;7.25;;;;;;;20.04;49.84;100183.88;4505942;31;118197;-64
2022/10/11 08:44:36;;;;;;;10.38;5.97;;;;;;;19.66;50.54;100189.66;4474595;31;789215;-64
2022/10/11 08:47:38;;;;;;;17.30;11.35;;;;;;;19.82;50.40;100181.59;4510202;31;144077;-64
2022/10/11 08:50:16;;;;;;;13.45;7.47;;;;;;;19.76;50.88;100184.94;4504777;31;33157;-66
2022/10/11 08:53:14;;;;;;;19.77;5.32;;;;;;;19.97;50.38;100182.66;4513683;31;119288;-63
2022/10/11 08:55:44;;;;;;;10.95;5.43;;;;;;;19.97;50.49;100195.41;4491656;31;32959;-66
2022/10/11 08:58:21;;;;;;;11.50;6.30;;;;;;;19.89;49.75;100181.78;4491590;32;34308;-65
2022/10/11 09:00:52;;;;;;;13.32;10.00;;;;;;;19.50;51.13;100187.69;4488307;31;32803;-64
2022/10/11 09:03:29;;;;;;;10.13;6.53;;;;;;;19.81;50.21;100188.03;4473719;32;32003;-66
2022/10/11 09:06:24;;;;;;;8.75;4.40;;;;;;;19.69;51.05;100183.91;4486947;32;33187;-65
2022/10/11 09:08:55;;;;;;;;;;;;;;;19.84;51.00;100186.84;4492132;31;33423;-67
2022/10/11 09:11:44;;;;;;;10.05;7.20;;;;;;;19.57;51.35;100190.59;4487125;32;34249;-66
2022/10/11 09:14:39;;;;;;;10.75;7.07;;;;;;;19.93;50.52;100180.41;4518728;31;121248;-64
2022/10/11 09:17:32;;;;;;;16.37;7.53;;;;;;;19.90;50.89;100187.06;4508211;31;33241;-63
2022/10/11 09:20:17;;;;;;;17.87;8.85;;;;;;;19.77;50.92;100194.78;4508070;31;34835;-63
2022/10/11 09:23:12;;;;;;;12.00;7.00;;;;;;;20.33;49.55;100195.16;4508862;31;35102;-63
2022/10/11 09:25:48;;;;;;;10.32;5.45;;;;;;;20.51;49.21;100182.28;4510708;31;31700;-65
2022/10/11 09:28:43;;;;;;;14.55;7.87;;;;;;;20.50;49.05;100183.28;4498918;31;32152;-65
2022/10/11 09:31:11;;;;;;;14.30;8.20;;;;;;;20.50;49.84;100193.31;4507945;31;33980;-66
2022/10/11 09:33:44;;;;;;;18.48;9.40;;;;;;;20.48;50.22;100193.47;4509002;31;33886;-65
2022/10/11 09:36:36;;;;;;;17.77;12.45;;;;;;;20.59;49.39;100195.06;4496391;31;33433;-66
2022/10/11 09:39:15;;;;;;;17.30;11.95;;;;;;;20.28;50.41;100195.63;4498223;31;34588;-71
2022/10/11 09:41:52;;;;;;;15.85;10.85;;;;;;;20.13;50.20;100192.72;4503099;31;35076;-74
2022/10/11 09:44:22;;;;;;;13.93;6.95;;;;;;;20.30;50.55;100195.50;4497555;31;33920;-73
2022/10/11 09:46:52;;;;;;;13.23;9.02;;;;;;;20.57;49.78;100197.94;4502144;31;33837;-72
2022/10/11 09:49:21;;;;;;;12.90;8.23;;;;;;;20.16;50.67;100195.12;4507475;31;33484;-65
2022/10/11 09:51:55;;;;;;;16.90;9.00;;;;;;;20.73;50.13;100205.25;4503971;31;34649;-65
2022/10/11 09:54:40;;;;;;;15.05;10.10;;;;;;;20.56;50.64;100195.38;4502920;31;32793;-65
2022/10/11 09:57:38;;;;;;;13.18;10.10;;;;;;;20.81;50.43;100198.97;4506834;31;33818;-65
2022/10/11 10:00:19;;;;;;;14.23;9.20;;;;;;;21.00;49.85;100198.62;4492423;31;33388;-65
2022/10/11 10:02:55;;;;;;;22.37;11.98;;;;;;;21.01;50.10;100192.16;4503707;31;31963;-64
2022/10/11 10:05:27;;;;;;;15.13;9.82;;;;;;;20.84;49.29;100198.66;4497679;31;33986;-65
2022/10/11 10:08:03;;;;;;;16.67;9.13;;;;;;;20.75;50.00;100195.06;4499435;31;32793;-65
2022/10/11 10:10:50;;;;;;;19.92;8.70;;;;;;;21.13;48.70;100179.06;4515780;31;31932;-65
2022/10/11 10:13:53;;;;;;;16.70;12.25;;;;;;;21.18;48.65;100185.66;4494594;31;32600;-64
2022/10/11 10:16:25;;;;;;;19.75;12.40;;;;;;;21.01;48.09;100188.59;4496531;31;33720;-65
2022/10/11 10:19:00;;;;;;;12.80;8.85;;;;;;;20.88;49.04;100192.69;4501434;31;33360;-66
2022/10/11 10:21:31;;;;;;;11.88;9.02;;;;;;;20.36;50.27;100197.53;4497741;31;33473;-65
2022/10/11 10:24:02;;;;;;;12.88;8.63;;;;;;;21.18;48.19;100179.37;4500962;31;34834;-65
2022/10/11 10:26:31;;;;;;;17.10;8.55;;;;;;;21.39;47.94;100182.44;4488415;31;35251;-65
2022/10/11 10:29:08;;;;;;;12.63;8.07;;;;;;;21.06;48.17;100183.47;4486620;31;31865;-65
2022/10/11 10:31:37;;;;;;;18.75;13.45;;;;;;;21.24;47.18;100181.41;4490757;31;33453;-65
2022/10/11 10:34:31;;;;;;;13.65;9.18;;;;;;;21.07;47.68;100187.91;4485890;31;33211;-66
2022/10/11 10:37:13;;;;;;;17.27;10.40;;;;;;;21.38;47.96;100179.91;4486299;31;35225;-66
2022/10/11 10:39:45;;;;;;;12.85;8.88;;;;;;;21.03;48.75;100183.84;4493122;31;33713;-66
2022/10/11 10:42:17;;;;;;;22.95;10.77;;;;;;;21.31;47.67;100181.56;4496994;31;33031;-66
2022/10/11 10:44:53;;;;;;;17.35;12.77;;;;;;;21.07;48.24;100185.19;4487984;31;32626;-66
2022/10/11 10:47:23;;;;;;;;;;;;;;;21.09;47.86;100188.56;4492104;31;34969;-66
2022/10/11 10:49:57;;;;;;;14.75;8.82;;;;;;;21.23;47.28;100185.16;4485731;31;32555;-66
2022/10/11 10:52:46;;;;;;;16.95;11.15;;;;;;;21.16;47.78;100176.00;4485849;31;33478;-66
2022/10/11 10:55:38;;;;;;;18.77;13.35;;;;;;;21.33;48.00;100182.25;4489582;31;33974;-66
2022/10/11 10:58:36;;;;;;;19.42;12.98;;;;;;;21.69;47.57;100177.22;4491583;31;32928;-66
2022/10/11 11:01:12;;;;;;;12.35;8.10;;;;;;;21.84;46.42;100178.19;4484984;31;33556;-67
2022/10/11 11:03:51;;;;;;;15.23;10.05;;;;;;;21.72;46.94;100176.03;4487655;31;33402;-67
2022/10/11 11:06:37;;;;;;;15.45;9.15;;;;;;;21.71;46.82;100171.63;4486560;31;33946;-66
2022/10/11 11:09:19;;;;;;;16.48;11.27;;;;;;;21.88;46.27;100170.50;4496825;31;35280;-66
2022/10/11 11:12:24;;;;;;;25.23;12.73;;;;;;;21.63;46.01;100169.75;4490451;31;33457;-66
2022/10/11 11:15:10;;;;;;;19.37;11.20;;;;;;;21.95;45.55;100171.47;4498025;31;33305;-66
2022/10/11 11:17:45;;;;;;;20.10;13.63;;;;;;;21.50;46.93;100173.03;4491222;31;33911;-66
2022/10/11 11:20:16;;;;;;;20.35;13.13;;;;;;;21.68;46.52;100177.41;4485107;32;34531;-66
2022/10/11 11:22:53;;;;;;;13.02;8.65;;;;;;;21.63;46.81;100175.19;4483563;31;32288;-66
2022/10/11 11:26:03;;;;;;;16.00;11.70;;;;;;;22.12;46.02;100176.84;4484525;31;33346;-66
2022/10/11 11:28:37;;;;;;;16.37;10.20;;;;;;;22.18;45.72;100170.72;4472277;31;33608;-66
2022/10/11 11:31:23;;;;;;;17.60;11.15;;;;;;;22.42;45.07;100161.53;4496877;31;33861;-66
2022/10/11 11:34:21;;;;;;;21.17;14.52;;;;;;;21.25;47.08;100161.34;4491178;31;33620;-66
2022/10/11 11:37:01;;;;;;;15.82;10.98;;;;;;;21.72;47.01;100162.41;4496529;31;34213;-66
2022/10/11 11:39:35;;;;;;;23.48;10.88;;;;;;;22.16;45.78;100156.44;4490947;31;34777;-66
2022/10/11 11:42:17;;;;;;;16.27;9.70;;;;;;;21.89;46.57;100157.72;4495770;31;35130;-66
2022/10/11 11:44:47;;;;;;;20.88;13.40;;;;;;;22.42;45.21;100150.62;4485475;31;32311;-66
2022/10/11 11:47:27;;;;;;;17.05;11.85;;;;;;;22.46;45.08;100157.41;4482970;31;33385;-66
2022/10/11 11:49:58;;;;;;;20.10;10.80;;;;;;;22.19;45.82;100154.19;4496395;31;35611;-63
2022/10/11 11:52:30;;;;;;;16.17;10.88;;;;;;;22.27;45.73;100147.81;4483308;31;32588;-65
2022/10/11 11:55:12;;;;;;;21.17;13.48;;;;;;;22.55;44.91;100154.44;4506981;31;34012;-65
2022/10/11 11:57:59;;;;;;;15.38;12.37;;;;;;;22.44;45.79;100151.28;4484863;32;33102;-65
2022/10/11 12:00:56;;;;;;;16.40;10.35;;;;;;;22.06;47.29;100153.91;4487637;31;34852;-65
2022/10/11 12:03:27;;;;;;;17.90;14.13;;;;;;;22.49;46.06;100144.25;4492384;31;35131;-65
2022/10/11 12:06:31;;;;;;;16.83;10.82;;;;;;;21.83;47.11;100149.25;4504661;31;34269;-65
2022/10/11 12:09:15;;;;;;;15.35;8.73;;;;;;;22.06;46.53;100154.75;4478372;31;33234;-65
2022/10/11 12:11:54;;;;;;;17.25;11.12;;;;;;;22.12;47.15;100149.59;4490528;31;32387;-64
2022/10/11 12:14:31;;;;;;;15.85;11.30;;;;;;;22.04;46.35;100148.63;4496246;31;34105;-64
2022/10/11 12:17:10;;;;;;;17.52;12.40;;;;;;;21.75;47.31;100143.81;4497666;31;34687;-64
2022/10/11 12:19:40;;;;;;;27.23;10.82;;;;;;;21.69;47.15;100138.25;4486358;31;33361;-65
2022/10/11 12:22:25;;;;;;;25.42;13.15;;;;;;;21.78;47.66;100142.63;4493410;31;33966;-65